Time;durP1;ratioP1;P1;durP2;ratioP2;P2;SDS_P1;SDS_P2;PMS_P1;PMS_P2;Temp;Humidity;BMP_temperature;BMP_pressure;BME280_temperature;BME280_humidity;BME280_pressure;Samples;Min_cycle;Max_cycle;Signal;HPM_P1;HPM_P2
2023/09/02 00:00:04;;;;;;;21.20;15.90;;;;;;;16.69;100.00;101678.34;5075761;28;20245;-76
2023/09/02 00:02:30;;;;;;;18.33;14.80;;;;;;;16.68;100.00;101679.28;5075108;28;20108;-76
2023/09/02 00:04:56;;;;;;;17.20;13.65;;;;;;;16.65;100.00;101675.00;5075529;28;20036;-76
2023/09/02 00:07:21;;;;;;;14.55;13.07;;;;;;;16.64;100.00;101677.72;5084980;28;20083;-75
2023/09/02 00:09:46;;;;;;;16.90;14.13;;;;;;;16.62;100.00;101674.31;5095755;28;20106;-75
2023/09/02 00:12:12;;;;;;;20.00;16.48;;;;;;;16.62;100.00;101682.25;5095805;28;20032;-75
2023/09/02 00:14:37;;;;;;;15.80;13.90;;;;;;;16.59;100.00;101679.75;5095131;28;20151;-75
2023/09/02 00:17:03;;;;;;;20.75;15.85;;;;;;;16.58;100.00;101683.34;5095693;28;20028;-75
2023/09/02 00:19:28;;;;;;;20.17;15.45;;;;;;;16.56;100.00;101670.22;5094987;28;20193;-75
2023/09/02 00:21:55;;;;;;;18.73;15.63;;;;;;;16.55;100.00;101673.78;5095645;28;20048;-75
2023/09/02 00:24:20;;;;;;;23.48;16.33;;;;;;;16.54;100.00;101668.59;5094890;28;20073;-75
2023/09/02 00:26:45;;;;;;;21.20;16.30;;;;;;;16.52;100.00;101666.03;5095025;28;20201;-75
2023/09/02 00:29:11;;;;;;;21.50;16.92;;;;;;;16.50;100.00;101668.75;5095148;28;20043;-75
2023/09/02 00:31:36;;;;;;;20.40;15.73;;;;;;;16.49;100.00;101677.59;5094708;28;20036;-75
2023/09/02 00:34:02;;;;;;;22.42;16.25;;;;;;;16.48;100.00;101669.75;5094915;28;20043;-75
2023/09/02 00:36:30;;;;;;;22.48;17.02;;;;;;;16.47;100.00;101676.84;5094660;28;20024;-76
2023/09/02 00:38:56;;;;;;;21.58;16.90;;;;;;;16.46;100.00;101676.91;5095486;28;20028;-76
2023/09/02 00:41:28;;;;;;;18.92;15.30;;;;;;;16.45;100.00;101676.06;5094487;28;20039;-75
2023/09/02 00:43:55;;;;;;;17.45;14.05;;;;;;;16.44;100.00;101669.06;5095309;28;20032;-75
2023/09/02 00:46:23;;;;;;;20.17;14.65;;;;;;;16.44;100.00;101673.50;5094527;28;20105;-75
2023/09/02 00:48:49;;;;;;;20.15;14.48;;;;;;;16.41;100.00;101668.34;5095151;28;20038;-75
2023/09/02 00:51:14;;;;;;;15.35;13.60;;;;;;;16.39;100.00;101670.22;5095107;28;20031;-75
2023/09/02 00:53:39;;;;;;;16.58;13.18;;;;;;;16.37;100.00;101670.34;5094600;28;20040;-75
2023/09/02 00:56:05;;;;;;;18.63;14.00;;;;;;;16.34;100.00;101665.19;5094909;28;20024;-75
2023/09/02 00:58:31;;;;;;;17.23;14.05;;;;;;;16.33;100.00;101665.28;5094048;28;20039;-75
2023/09/02 01:00:58;;;;;;;17.33;14.20;;;;;;;16.31;100.00;101668.00;5094769;28;20039;-75
2023/09/02 01:03:23;;;;;;;15.95;13.57;;;;;;;16.29;100.00;101676.00;5094004;28;20031;-75
2023/09/02 01:05:49;;;;;;;14.27;12.75;;;;;;;16.27;100.00;101669.94;5094779;28;20077;-75
2023/09/02 01:08:19;;;;;;;17.33;13.05;;;;;;;16.25;100.00;101673.59;5094729;28;20051;-75
2023/09/02 01:10:44;;;;;;;16.88;12.40;;;;;;;16.23;100.00;101678.97;5094828;28;20492;-75
2023/09/02 01:13:10;;;;;;;13.85;12.38;;;;;;;16.22;100.00;101685.16;5094685;28;20043;-75
2023/09/02 01:15:35;;;;;;;14.23;12.00;;;;;;;16.20;100.00;101681.75;5094156;28;20702;-76
2023/09/02 01:18:01;;;;;;;15.55;12.70;;;;;;;16.20;100.00;101675.63;5094587;28;20095;-76
2023/09/02 01:20:54;;;;;;;17.45;14.48;;;;;;;16.19;100.00;101682.69;5094703;28;20250;-76
2023/09/02 01:23:41;;;;;;;20.73;16.02;;;;;;;16.20;100.00;101680.91;5052648;28;20052;-76
2023/09/02 01:26:42;;;;;;;20.67;16.70;;;;;;;16.18;100.00;101686.25;5094668;28;20279;-76
2023/09/02 01:29:10;;;;;;;24.38;17.55;;;;;;;16.18;100.00;101691.56;5076151;28;20051;-76
2023/09/02 01:31:37;;;;;;;21.38;17.10;;;;;;;16.19;100.00;101692.41;5094245;28;20281;-76
2023/09/02 01:34:06;;;;;;;23.58;16.95;;;;;;;16.18;100.00;101696.84;5095010;28;20339;-76
2023/09/02 01:36:33;;;;;;;22.77;16.45;;;;;;;16.19;100.00;101706.50;5093858;28;20040;-76
2023/09/02 01:38:59;;;;;;;20.45;16.00;;;;;;;16.18;100.00;101699.47;5076542;28;20031;-76
2023/09/02 01:41:27;;;;;;;19.30;16.02;;;;;;;16.18;100.00;101696.84;5093865;28;20040;-76
2023/09/02 01:43:54;;;;;;;20.35;15.90;;;;;;;16.18;100.00;101688.06;5075924;28;20059;-76
2023/09/02 01:46:20;;;;;;;22.80;16.35;;;;;;;16.19;100.00;101700.31;5097238;28;20150;-76
2023/09/02 01:48:46;;;;;;;19.05;14.75;;;;;;;16.18;100.00;101702.13;5098401;28;20031;-76
2023/09/02 01:51:12;;;;;;;17.88;15.88;;;;;;;16.19;100.00;101708.25;5098727;28;20032;-76
2023/09/02 01:53:37;;;;;;;21.90;15.90;;;;;;;16.19;100.00;101705.59;5097729;28;20040;-75
2023/09/02 01:56:03;;;;;;;21.02;17.00;;;;;;;16.18;100.00;101712.69;5098418;28;20327;-75
2023/09/02 01:58:28;;;;;;;17.88;15.65;;;;;;;16.17;100.00;101713.63;5097680;28;20103;-75
2023/09/02 02:00:54;;;;;;;19.63;16.25;;;;;;;16.17;100.00;101711.00;5098514;28;20119;-75
2023/09/02 02:03:24;;;;;;;19.77;16.17;;;;;;;16.17;100.00;101711.00;5079667;28;20031;-75
2023/09/02 02:05:53;;;;;;;17.70;15.30;;;;;;;16.17;100.00;101720.69;5098539;28;20240;-75
2023/09/02 02:08:55;;;;;;;17.45;14.80;;;;;;;16.16;100.00;101722.50;5097375;28;20032;-75
2023/09/02 02:11:22;;;;;;;17.50;15.02;;;;;;;16.18;100.00;101735.63;5097768;28;20055;-75
2023/09/02 02:13:50;;;;;;;16.23;14.55;;;;;;;16.17;100.00;101734.78;5098295;28;20346;-75
2023/09/02 02:16:16;;;;;;;16.92;14.68;;;;;;;16.16;100.00;101727.78;5097866;28;20040;-75
2023/09/02 02:18:41;;;;;;;15.68;13.90;;;;;;;16.16;100.00;101732.22;5098137;28;20095;-75
2023/09/02 02:21:07;;;;;;;18.15;14.27;;;;;;;16.17;100.00;101731.25;5097994;28;20035;-75
2023/09/02 02:23:32;;;;;;;16.70;14.32;;;;;;;16.16;100.00;101726.94;5078776;28;20200;-75
2023/09/02 02:26:03;;;;;;;16.50;14.73;;;;;;;16.17;100.00;101728.63;5099960;28;20054;-74
2023/09/02 02:28:29;;;;;;;14.82;13.32;;;;;;;16.16;100.00;101726.94;5099751;28;20315;-74
2023/09/02 02:30:56;;;;;;;14.73;13.20;;;;;;;16.16;100.00;101729.56;5098482;28;20023;-75
2023/09/02 02:33:22;;;;;;;15.93;14.32;;;;;;;16.17;100.00;101728.63;5097388;28;20335;-74
2023/09/02 02:35:47;;;;;;;16.35;14.70;;;;;;;16.16;100.00;101732.22;5086705;28;20081;-74
2023/09/02 02:38:12;;;;;;;16.25;14.52;;;;;;;16.16;100.00;101727.78;5094591;28;20207;-74
2023/09/02 02:40:38;;;;;;;16.02;14.32;;;;;;;16.15;100.00;101720.75;5096767;28;20036;-74
2023/09/02 02:43:04;;;;;;;15.85;14.23;;;;;;;16.16;100.00;101721.63;5097246;28;20331;-74
2023/09/02 02:45:29;;;;;;;16.23;14.57;;;;;;;16.16;100.00;101722.50;5097028;28;20100;-74
2023/09/02 02:47:55;;;;;;;16.27;14.68;;;;;;;16.15;100.00;101722.56;5097362;28;20350;-74
2023/09/02 02:50:20;;;;;;;16.67;14.98;;;;;;;16.15;100.00;101714.63;5096841;28;20032;-74
2023/09/02 02:52:46;;;;;;;16.02;14.32;;;;;;;16.14;100.00;101718.22;5097456;28;20032;-74
2023/09/02 02:55:12;;;;;;;16.85;14.98;;;;;;;16.15;100.00;101722.56;5096918;28;20032;-75
2023/09/02 02:57:37;;;;;;;14.60;13.07;;;;;;;16.12;100.00;101719.16;5096268;28;20035;-74
2023/09/02 03:00:03;;;;;;;15.30;13.70;;;;;;;16.14;100.00;101723.50;5097370;28;20069;-74
2023/09/02 03:02:28;;;;;;;15.52;13.93;;;;;;;16.13;100.00;101727.91;5096230;28;20036;-74
2023/09/02 03:04:54;;;;;;;16.00;14.40;;;;;;;16.12;100.00;101724.44;5079813;28;20039;-74
2023/09/02 03:07:19;;;;;;;14.35;12.85;;;;;;;16.11;100.00;101722.69;5085824;28;20032;-74
2023/09/02 03:09:44;;;;;;;14.35;13.00;;;;;;;16.12;100.00;101728.88;5097077;28;20032;-74
2023/09/02 03:12:10;;;;;;;16.02;14.43;;;;;;;16.10;100.00;101723.66;5096778;28;20255;-74
2023/09/02 03:14:35;;;;;;;13.98;12.68;;;;;;;16.10;100.00;101731.56;5096215;28;20128;-74
2023/09/02 03:17:00;;;;;;;15.63;14.05;;;;;;;16.10;100.00;101736.03;5096501;28;20231;-74
2023/09/02 03:19:26;;;;;;;16.40;14.52;;;;;;;16.09;100.00;101742.22;5096106;28;20386;-74
2023/09/02 03:21:51;;;;;;;14.65;13.25;;;;;;;16.07;100.00;101737.00;5096329;28;20232;-74
2023/09/02 03:24:17;;;;;;;12.30;11.13;;;;;;;16.06;100.00;101739.72;5095944;28;20032;-74
2023/09/02 03:26:42;;;;;;;14.20;12.82;;;;;;;16.05;100.00;101738.03;5096640;28;20044;-74
2023/09/02 03:29:08;;;;;;;15.05;13.55;;;;;;;16.05;100.00;101743.31;5096356;28;20373;-74
2023/09/02 03:31:33;;;;;;;14.38;12.95;;;;;;;16.03;100.00;101738.09;5096158;28;20040;-74
2023/09/02 03:33:59;;;;;;;15.07;13.57;;;;;;;16.03;100.00;101743.38;5096968;28;20039;-74
2023/09/02 03:36:24;;;;;;;14.07;12.73;;;;;;;16.02;100.00;101746.94;5095733;28;20097;-74
2023/09/02 03:38:49;;;;;;;13.60;12.30;;;;;;;16.01;100.00;101736.44;5096451;28;20059;-74
2023/09/02 03:41:17;;;;;;;12.73;11.55;;;;;;;16.00;100.00;101745.31;5096332;28;20031;-74
2023/09/02 03:43:44;;;;;;;14.02;12.68;;;;;;;16.00;100.00;101756.72;5096288;28;20221;-74
2023/09/02 03:46:10;;;;;;;13.55;12.25;;;;;;;15.99;100.00;101751.53;5096272;28;20395;-74
2023/09/02 03:48:35;;;;;;;13.18;11.98;;;;;;;15.99;100.00;101759.44;5095913;28;20040;-74
2023/09/02 03:51:03;;;;;;;13.05;11.88;;;;;;;15.98;100.00;101753.31;5096007;28;20035;-74
2023/09/02 03:53:29;;;;;;;12.80;11.53;;;;;;;15.99;100.00;101764.72;5095629;28;20104;-74
2023/09/02 03:55:54;;;;;;;11.77;10.70;;;;;;;15.99;100.00;101762.09;5095924;28;20059;-74
2023/09/02 03:58:20;;;;;;;12.70;11.50;;;;;;;15.99;100.00;101768.25;5095366;28;20385;-74
2023/09/02 04:00:45;;;;;;;12.30;11.10;;;;;;;15.97;100.00;101764.84;5096009;28;20039;-74
2023/09/02 04:03:12;;;;;;;12.10;11.07;;;;;;;15.97;100.00;101759.53;5092898;28;20032;-74
2023/09/02 04:05:38;;;;;;;12.65;11.45;;;;;;;15.96;100.00;101763.09;5075106;28;20343;-75
2023/09/02 04:08:04;;;;;;;11.88;10.77;;;;;;;15.97;100.00;101763.94;5090264;28;20035;-75
2023/09/02 04:10:31;;;;;;;12.88;11.65;;;;;;;15.97;100.00;101753.38;5095084;28;20103;-75
2023/09/02 04:12:56;;;;;;;11.98;10.88;;;;;;;15.97;100.00;101763.94;5095614;28;20269;-75
2023/09/02 04:15:21;;;;;;;11.68;10.63;;;;;;;15.96;100.00;101762.25;5095163;28;20091;-75
2023/09/02 04:17:47;;;;;;;11.80;10.80;;;;;;;15.96;100.00;101762.25;5095814;28;20036;-75
2023/09/02 04:20:12;;;;;;;12.60;11.38;;;;;;;15.96;100.00;101762.25;5085241;28;20079;-75
2023/09/02 04:22:37;;;;;;;12.00;10.80;;;;;;;15.95;100.00;101761.38;5085908;28;20367;-75
2023/09/02 04:25:03;;;;;;;12.10;10.93;;;;;;;15.95;100.00;101760.53;5095373;28;20231;-75
2023/09/02 04:27:29;;;;;;;11.55;10.40;;;;;;;15.92;100.00;101759.75;5076823;28;20379;-74
2023/09/02 04:29:54;;;;;;;12.82;11.65;;;;;;;15.91;100.00;101773.88;5074675;28;20028;-74
2023/09/02 04:32:19;;;;;;;12.45;11.15;;;;;;;15.90;100.00;101776.63;5074246;28;20347;-74
2023/09/02 04:34:46;;;;;;;9.30;8.50;;;;;;;15.89;100.00;101781.03;5075554;28;20375;-74
2023/09/02 04:37:11;;;;;;;12.00;10.90;;;;;;;15.90;100.00;101790.69;5083377;28;20134;-74
2023/09/02 04:39:40;;;;;;;11.35;10.38;;;;;;;15.90;100.00;101793.31;5077022;28;20036;-74
2023/09/02 04:42:05;;;;;;;12.57;11.30;;;;;;;15.90;100.00;101789.84;5074943;28;20028;-74
2023/09/02 04:44:31;;;;;;;13.77;12.40;;;;;;;15.89;100.00;101785.47;5073919;28;20059;-74
2023/09/02 04:46:56;;;;;;;13.73;12.43;;;;;;;15.89;100.00;101788.94;5073881;28;20142;-74
2023/09/02 04:49:22;;;;;;;12.95;11.75;;;;;;;15.89;100.00;101791.59;5073065;28;20032;-74
2023/09/02 04:51:48;;;;;;;12.27;11.00;;;;;;;15.89;100.00;101791.59;5073802;28;20059;-74
2023/09/02 04:54:14;;;;;;;9.38;8.55;;;;;;;15.88;100.00;101787.25;5074329;28;20039;-74
2023/09/02 04:56:39;;;;;;;13.73;12.40;;;;;;;15.87;100.00;101795.25;5072585;28;20175;-74
2023/09/02 04:59:05;;;;;;;13.65;12.25;;;;;;;15.87;100.00;101795.25;5073258;28;20100;-74
2023/09/02 05:01:30;;;;;;;13.13;11.88;;;;;;;15.85;100.00;101790.03;5072998;28;20035;-74
2023/09/02 05:03:56;;;;;;;13.27;11.98;;;;;;;15.85;100.00;101797.13;5086817;28;20346;-74
2023/09/02 05:06:21;;;;;;;11.27;10.30;;;;;;;15.83;100.00;101789.25;5094424;28;20032;-74
2023/09/02 05:08:46;;;;;;;17.17;14.32;;;;;;;15.82;100.00;101802.53;5094653;28;20040;-74
2023/09/02 05:11:12;;;;;;;14.68;13.18;;;;;;;15.80;100.00;101797.31;5090155;28;20032;-74
2023/09/02 05:13:37;;;;;;;13.52;12.23;;;;;;;15.78;100.00;101809.75;5084022;28;20173;-74
2023/09/02 05:16:03;;;;;;;15.75;14.15;;;;;;;15.78;100.00;101809.75;5083176;28;20342;-74
2023/09/02 05:18:28;;;;;;;14.40;12.57;;;;;;;15.76;100.00;101813.41;5077153;28;20048;-74
2023/09/02 05:20:56;;;;;;;12.98;11.88;;;;;;;15.74;100.00;101822.22;5081441;28;20107;-74
2023/09/02 05:23:21;;;;;;;15.20;13.45;;;;;;;15.73;100.00;101815.22;5062382;28;20581;-74
2023/09/02 05:25:52;;;;;;;11.95;10.90;;;;;;;15.73;100.00;101817.88;5081329;28;20072;-74
2023/09/02 05:28:18;;;;;;;11.00;10.10;;;;;;;15.75;100.00;101825.72;5080695;28;20074;-74
2023/09/02 05:30:44;;;;;;;11.02;10.07;;;;;;;15.73;100.00;101828.44;5081009;28;20040;-74
2023/09/02 05:33:10;;;;;;;10.43;9.52;;;;;;;15.74;100.00;101838.06;5081324;28;20036;-74
2023/09/02 05:35:35;;;;;;;10.77;9.77;;;;;;;15.74;100.00;101840.72;5080322;28;20032;-74
2023/09/02 05:38:02;;;;;;;12.32;11.23;;;;;;;15.73;100.00;101839.00;5096389;28;20038;-74
2023/09/02 05:40:27;;;;;;;10.20;9.35;;;;;;;15.73;100.00;101833.72;5100557;28;20044;-74
2023/09/02 05:42:53;;;;;;;12.63;11.48;;;;;;;15.72;100.00;101834.63;5101004;28;20038;-74
2023/09/02 05:45:18;;;;;;;10.85;9.95;;;;;;;15.71;100.00;101832.91;5100620;28;20047;-74
2023/09/02 05:47:43;;;;;;;10.43;9.60;;;;;;;15.71;100.00;101837.34;5100990;28;20028;-74
2023/09/02 05:50:09;;;;;;;11.68;10.48;;;;;;;15.69;100.00;101839.19;5100854;28;20051;-74
2023/09/02 05:52:34;;;;;;;11.05;10.15;;;;;;;15.69;100.00;101837.41;5100537;28;20031;-74
2023/09/02 05:55:00;;;;;;;10.18;9.45;;;;;;;15.69;100.00;101840.03;5101133;28;20039;-74
2023/09/02 05:57:25;;;;;;;9.38;8.68;;;;;;;15.69;100.00;101849.75;5100801;28;20027;-74
2023/09/02 05:59:50;;;;;;;9.30;8.65;;;;;;;15.68;100.00;101840.97;5087505;28;20033;-74
2023/09/02 06:02:16;;;;;;;12.57;11.45;;;;;;;15.68;100.00;101842.75;5097763;28;20028;-74
2023/09/02 06:04:41;;;;;;;8.55;7.95;;;;;;;15.66;100.00;101848.13;5098939;28;20028;-74
2023/09/02 06:07:06;;;;;;;8.88;8.27;;;;;;;15.67;100.00;101852.47;5100304;28;20038;-74
2023/09/02 06:09:32;;;;;;;9.15;8.45;;;;;;;15.65;100.00;101859.59;5099313;28;20036;-74
2023/09/02 06:11:57;;;;;;;9.40;8.70;;;;;;;15.66;100.00;101857.81;5100296;28;20035;-74
2023/09/02 06:14:23;;;;;;;8.90;8.30;;;;;;;15.66;100.00;101865.72;5098930;28;20057;-74
2023/09/02 06:16:49;;;;;;;8.30;7.70;;;;;;;15.66;100.00;101871.00;5099721;28;20028;-74
2023/09/02 06:19:15;;;;;;;8.32;7.72;;;;;;;15.67;100.00;101878.03;5099899;28;20028;-74
2023/09/02 06:21:40;;;;;;;7.93;7.40;;;;;;;15.65;100.00;101877.22;5098947;28;20081;-74
2023/09/02 06:24:06;;;;;;;7.03;6.63;;;;;;;15.65;100.00;101895.72;5099530;28;20042;-74
2023/09/02 06:26:31;;;;;;;9.43;8.73;;;;;;;15.64;100.00;101891.34;5099052;28;20229;-74
2023/09/02 06:28:57;;;;;;;7.82;7.32;;;;;;;15.64;100.00;101896.63;5100786;28;20020;-74
2023/09/02 06:31:23;;;;;;;6.97;6.57;;;;;;;15.62;100.00;101901.97;5097328;28;20035;-74
2023/09/02 06:33:48;;;;;;;8.50;7.95;;;;;;;15.62;100.00;101901.97;5097637;28;20350;-74
2023/09/02 06:36:19;;;;;;;9.70;8.90;;;;;;;15.62;100.00;101917.81;5097306;28;20067;-74
2023/09/02 06:38:46;;;;;;;8.30;7.80;;;;;;;15.62;100.00;101911.69;5097960;28;20372;-74
2023/09/02 06:41:13;;;;;;;5.80;5.50;;;;;;;15.62;100.00;101917.81;5079012;28;20028;-74
2023/09/02 06:43:39;;;;;;;11.73;10.63;;;;;;;15.62;100.00;101922.25;5096526;28;20028;-74
2023/09/02 06:46:22;;;;;;;7.43;6.93;;;;;;;15.61;100.00;101926.69;5097538;28;20325;-74
2023/09/02 06:48:48;;;;;;;8.85;8.25;;;;;;;15.60;100.00;101930.22;5097447;28;20042;-74
2023/09/02 06:51:14;;;;;;;10.40;9.60;;;;;;;15.60;100.00;101934.66;5079085;28;20223;-74
2023/09/02 06:53:40;;;;;;;10.52;9.70;;;;;;;15.60;100.00;101938.16;5078516;28;20038;-74
2023/09/02 06:56:07;;;;;;;8.48;7.88;;;;;;;15.60;100.00;101955.78;5097122;28;20033;-74
2023/09/02 06:58:33;;;;;;;8.85;8.15;;;;;;;15.60;100.00;101950.50;5096676;28;20307;-74
2023/09/02 07:00:58;;;;;;;11.18;10.30;;;;;;;15.60;100.00;101953.16;5097139;28;20036;-74
2023/09/02 07:03:24;;;;;;;12.15;10.98;;;;;;;15.58;100.00;101950.56;5093620;28;20043;-74
2023/09/02 07:05:49;;;;;;;15.68;11.30;;;;;;;15.58;100.00;101947.09;5078291;28;20285;-74
2023/09/02 07:08:15;;;;;;;12.43;11.32;;;;;;;15.57;100.00;101955.91;5089346;28;20024;-74
2023/09/02 07:10:41;;;;;;;13.60;12.27;;;;;;;15.55;100.00;101953.34;5075468;28;20343;-74
2023/09/02 07:13:06;;;;;;;13.55;12.20;;;;;;;15.57;100.00;101958.56;5094444;28;20141;-74
2023/09/02 07:15:31;;;;;;;13.75;12.18;;;;;;;15.57;100.00;101950.63;5087006;28;20094;-74
2023/09/02 07:17:57;;;;;;;13.13;11.80;;;;;;;15.59;100.00;101961.97;5096924;28;20035;-74
2023/09/02 07:20:22;;;;;;;14.30;12.80;;;;;;;15.58;100.00;101965.56;5096280;28;20099;-74
2023/09/02 07:22:47;;;;;;;13.82;12.48;;;;;;;15.59;100.00;101975.19;5096644;28;20211;-74
2023/09/02 07:25:13;;;;;;;12.40;11.20;;;;;;;15.59;100.00;101976.06;5073098;28;20059;-74
2023/09/02 07:27:38;;;;;;;15.25;13.48;;;;;;;15.60;100.00;101983.03;5095652;28;20285;-74
2023/09/02 07:30:04;;;;;;;12.38;11.13;;;;;;;15.60;100.00;101977.75;5090532;28;20062;-74
2023/09/02 07:32:30;;;;;;;18.60;14.45;;;;;;;15.62;100.00;101990.91;5086952;28;20024;-74
2023/09/02 07:34:55;;;;;;;18.42;14.43;;;;;;;15.62;100.00;101993.53;5096165;28;20267;-74
2023/09/02 07:37:20;;;;;;;17.73;14.68;;;;;;;15.61;100.00;101992.69;5095448;28;20028;-74
2023/09/02 07:39:46;;;;;;;19.42;15.77;;;;;;;15.62;100.00;101997.03;5096075;28;20297;-74
2023/09/02 07:42:11;;;;;;;22.65;16.77;;;;;;;15.63;100.00;101993.47;5095319;28;20326;-74
2023/09/02 07:44:36;;;;;;;18.90;14.70;;;;;;;15.63;100.00;102000.56;5095374;28;20043;-74
2023/09/02 07:47:02;;;;;;;17.95;14.48;;;;;;;15.65;100.00;102007.47;5096042;28;20213;-74
2023/09/02 07:49:27;;;;;;;26.40;16.42;;;;;;;15.65;100.00;102003.97;5095976;28;20206;-74
2023/09/02 07:51:53;;;;;;;21.10;15.30;;;;;;;15.66;100.00;102006.56;5096012;28;20055;-74
2023/09/02 07:54:18;;;;;;;25.45;16.35;;;;;;;15.67;100.00;102012.69;5095585;28;20028;-74
2023/09/02 07:56:44;;;;;;;23.48;16.23;;;;;;;15.68;100.00;102017.91;5095916;28;20082;-74
2023/09/02 07:59:09;;;;;;;28.73;18.10;;;;;;;15.70;100.00;102031.91;5067717;28;20332;-74
2023/09/02 08:01:34;;;;;;;24.67;16.80;;;;;;;15.71;100.00;102032.75;5075024;28;20385;-74
2023/09/02 08:03:59;;;;;;;31.73;19.05;;;;;;;15.73;100.00;102026.50;5076277;28;20327;-74
2023/09/02 08:06:25;;;;;;;26.58;17.20;;;;;;;15.74;100.00;102020.31;5077107;28;20062;-74
2023/09/02 08:08:52;;;;;;;33.58;19.65;;;;;;;15.76;100.00;102025.53;5095522;28;20036;-74
2023/09/02 08:11:18;;;;;;;32.80;19.67;;;;;;;15.78;100.00;102028.09;5076973;28;20028;-74
2023/09/02 08:13:44;;;;;;;32.55;20.08;;;;;;;15.79;100.00;102025.41;5096112;28;20091;-74
2023/09/02 08:16:09;;;;;;;37.17;20.98;;;;;;;15.80;100.00;102026.25;5078641;28;20035;-74
2023/09/02 08:18:35;;;;;;;37.78;21.30;;;;;;;15.80;100.00;102021.81;5075873;28;20016;-74
2023/09/02 08:21:06;;;;;;;36.22;20.58;;;;;;;15.82;100.00;102024.41;5094786;28;20089;-74
2023/09/02 08:23:32;;;;;;;36.35;21.67;;;;;;;15.83;100.00;102026.97;5093713;28;20059;-74
2023/09/02 08:25:57;;;;;;;40.05;22.58;;;;;;;15.85;100.00;102033.03;5094423;28;20374;-74
2023/09/02 08:28:22;;;;;;;34.92;20.17;;;;;;;15.87;100.00;102028.53;5094146;28;20220;-74
2023/09/02 08:30:48;;;;;;;37.88;21.13;;;;;;;15.88;100.00;102022.34;5095046;28;20351;-74
2023/09/02 08:33:13;;;;;;;47.85;24.63;;;;;;;15.91;100.00;102014.28;5094912;28;20054;-74
2023/09/02 08:35:38;;;;;;;46.13;23.80;;;;;;;15.93;100.00;102023.00;5089589;28;20036;-74
2023/09/02 08:38:04;;;;;;;49.53;24.83;;;;;;;15.96;100.00;102026.44;5090961;28;20066;-74
2023/09/02 08:40:31;;;;;;;48.35;23.25;;;;;;;15.98;100.00;102032.50;5094649;28;20042;-74
2023/09/02 08:43:00;;;;;;;35.70;21.40;;;;;;;15.99;100.00;102032.44;5095162;28;20343;-74
2023/09/02 08:45:28;;;;;;;49.03;24.00;;;;;;;16.02;100.00;102034.09;5094375;28;20392;-74
2023/09/02 08:47:57;;;;;;;37.27;20.13;;;;;;;16.05;100.00;102039.25;5095157;28;20036;-74
2023/09/02 08:50:25;;;;;;;42.38;22.05;;;;;;;16.07;100.00;102040.88;5094519;28;20032;-74
2023/09/02 08:52:52;;;;;;;33.35;18.95;;;;;;;16.08;100.00;102047.88;5094702;28;20045;-74
2023/09/02 08:55:18;;;;;;;42.25;21.17;;;;;;;16.11;100.00;102052.16;5094227;28;20066;-74
2023/09/02 08:57:44;;;;;;;36.05;19.35;;;;;;;16.15;100.00;102056.38;5094923;28;20035;-74
2023/09/02 09:00:10;;;;;;;48.40;24.75;;;;;;;16.18;100.00;102058.03;5094291;28;20147;-74
2023/09/02 09:02:38;;;;;;;36.85;20.00;;;;;;;16.19;100.00;102059.75;5093292;28;20060;-74
2023/09/02 09:05:05;;;;;;;46.42;23.70;;;;;;;16.22;100.00;102064.91;5094217;28;20024;-74
2023/09/02 09:07:31;;;;;;;47.67;25.38;;;;;;;16.24;100.00;102068.31;5094153;28;20059;-74
2023/09/02 09:10:01;;;;;;;57.05;27.13;;;;;;;16.25;100.00;102073.56;5094139;28;20366;-74
2023/09/02 09:12:29;;;;;;;50.35;24.67;;;;;;;16.27;100.00;102076.13;5094645;28;20209;-74
2023/09/02 09:14:57;;;;;;;52.67;25.40;;;;;;;16.28;100.00;102089.28;5094210;28;20570;-74
2023/09/02 09:17:24;;;;;;;52.63;26.08;;;;;;;16.30;100.00;102090.06;5092678;28;20373;-74
2023/09/02 09:19:51;;;;;;;58.53;27.55;;;;;;;16.32;100.00;102092.66;5093326;28;20078;-74
2023/09/02 09:22:16;;;;;;;45.30;22.42;;;;;;;16.33;100.00;102090.84;5092980;28;20232;-74
2023/09/02 09:24:41;;;;;;;53.97;26.85;;;;;;;16.36;100.00;102090.72;5093572;28;20034;-74
2023/09/02 09:27:09;;;;;;;44.60;23.88;;;;;;;16.40;100.00;102094.94;5092908;28;20109;-74
2023/09/02 09:29:41;;;;;;;47.67;23.40;;;;;;;16.44;100.00;102081.50;5093822;28;20055;-74
2023/09/02 09:32:09;;;;;;;55.38;25.63;;;;;;;16.48;100.00;102091.03;5094813;28;20560;-74
2023/09/02 09:34:42;;;;;;;55.13;26.70;;;;;;;16.54;100.00;102091.69;5093898;28;20031;-74
2023/09/02 09:37:09;;;;;;;64.00;29.08;;;;;;;16.57;100.00;102095.03;5094465;28;20044;-74
2023/09/02 09:39:46;;;;;;;59.85;28.02;;;;;;;16.61;100.00;102098.41;5094032;28;20070;-74
2023/09/02 09:42:13;;;;;;;68.53;31.70;;;;;;;16.62;100.00;102100.09;5094665;28;20046;-74
2023/09/02 09:44:56;;;;;;;69.15;31.15;;;;;;;16.65;100.00;102100.81;5093712;28;20032;-74
2023/09/02 09:47:23;;;;;;;60.25;28.63;;;;;;;16.69;100.00;102098.88;5093850;28;20035;-74
2023/09/02 09:49:52;;;;;;;61.63;28.25;;;;;;;16.74;100.00;102106.63;5094530;28;20343;-74
2023/09/02 09:52:19;;;;;;;60.17;28.92;;;;;;;16.77;100.00;102111.75;5094066;28;20069;-74
2023/09/02 09:54:50;;;;;;;61.85;30.70;;;;;;;16.80;100.00;102124.84;5094708;28;20319;-74
2023/09/02 09:57:29;;;;;;;51.42;25.75;;;;;;;16.83;100.00;102128.25;5094578;28;20130;-74
2023/09/02 09:59:54;;;;;;;;;;;;;;;16.89;100.00;102130.59;5094714;28;20371;-74
2023/09/02 10:02:21;;;;;;;59.53;28.53;;;;;;;16.93;100.00;102131.31;5094023;28;19927;-74
2023/09/02 10:04:52;;;;;;;52.92;26.35;;;;;;;16.97;100.00;102138.19;5094068;28;20266;-74
2023/09/02 10:07:21;;;;;;;60.50;27.75;;;;;;;17.02;100.00;102140.59;5096767;28;20100;-74
2023/09/02 10:09:47;;;;;;;59.78;28.65;;;;;;;17.10;100.00;102145.53;5098505;28;20111;-74
2023/09/02 10:12:13;;;;;;;63.72;29.27;;;;;;;17.16;100.00;102145.25;5097870;28;20024;-74
2023/09/02 10:14:43;;;;;;;51.42;26.48;;;;;;;17.20;100.00;102149.47;5092363;28;20268;-74
2023/09/02 10:17:09;;;;;;;53.40;25.95;;;;;;;17.22;100.00;102144.94;5077876;28;20045;-74
2023/09/02 10:19:36;;;;;;;50.45;24.98;;;;;;;17.24;100.00;102151.88;5077214;28;20043;-74
2023/09/02 10:22:05;;;;;;;55.72;27.10;;;;;;;17.26;100.00;102144.75;5077622;28;20286;-74
2023/09/02 10:24:38;;;;;;;56.13;27.25;;;;;;;17.31;100.00;102148.94;5077229;28;20074;-74
2023/09/02 10:27:17;;;;;;;44.35;22.40;;;;;;;17.35;100.00;102148.72;5077213;28;20120;-74
2023/09/02 10:29:46;;;;;;;54.78;27.17;;;;;;;17.38;100.00;102145.91;5077332;28;20059;-74
2023/09/02 10:32:12;;;;;;;64.25;29.67;;;;;;;17.43;100.00;102146.56;5077478;28;20044;-74
2023/09/02 10:34:56;;;;;;;47.67;24.45;;;;;;;17.46;100.00;102145.53;5077261;28;20404;-74
2023/09/02 10:37:28;;;;;;;52.42;24.73;;;;;;;17.49;100.00;102150.69;5086621;28;20108;-74
2023/09/02 10:40:05;;;;;;;44.40;22.58;;;;;;;17.53;100.00;102151.41;5097922;28;20062;-74
2023/09/02 10:42:31;;;;;;;46.30;24.67;;;;;;;17.54;100.00;102147.84;5097435;28;20400;-74
2023/09/02 10:44:57;;;;;;;45.33;24.40;;;;;;;17.57;100.00;102143.25;5097432;28;20064;-74
2023/09/02 10:47:22;;;;;;;49.42;24.58;;;;;;;17.60;100.00;102144.88;5096751;28;20262;-74
2023/09/02 10:49:49;;;;;;;47.20;24.00;;;;;;;17.62;100.00;102158.91;5097067;28;20036;-74
2023/09/02 10:52:16;;;;;;;47.72;25.05;;;;;;;17.65;100.00;102158.75;5097102;28;20028;-74
2023/09/02 10:55:08;;;;;;;47.40;22.80;;;;;;;17.68;100.00;102160.38;5096936;28;20295;-74
2023/09/02 10:57:49;;;;;;;50.83;25.33;;;;;;;17.67;100.00;102153.38;5096513;28;20293;-74
2023/09/02 11:00:17;;;;;;;42.72;23.52;;;;;;;17.71;100.00;102152.28;5096983;28;20113;-74
2023/09/02 11:02:44;;;;;;;54.95;25.98;;;;;;;17.73;100.00;102159.22;5096937;28;20039;-74